createdAt,value
2019-01-30T00:00:40.916Z,9.50
2019-01-30T00:04:44.348Z,9.87
2019-01-30T00:08:47.775Z,10.43
2019-01-30T00:12:51.178Z,9.83
2019-01-30T00:16:54.608Z,9.63
2019-01-30T00:20:58.034Z,9.70
2019-01-30T00:25:01.467Z,9.60
2019-01-30T00:29:04.996Z,10.33
2019-01-30T00:33:08.412Z,10.43
2019-01-30T00:37:11.911Z,12.47
2019-01-30T00:41:15.359Z,11.17
2019-01-30T00:45:20.333Z,11.10
2019-01-30T00:49:23.776Z,11.70
2019-01-30T00:53:27.180Z,11.67
2019-01-30T00:57:30.683Z,11.33
2019-01-30T01:01:43.348Z,11.50
2019-01-30T01:05:46.775Z,11.53
2019-01-30T01:09:50.194Z,11.70
2019-01-30T01:13:53.631Z,10.73
2019-01-30T01:17:57.068Z,11.47
2019-01-30T01:22:00.542Z,12.07
2019-01-30T01:26:04.052Z,11.67
2019-01-30T01:30:10.567Z,12.23
2019-01-30T01:34:13.985Z,11.97
2019-01-30T01:38:17.419Z,12.30
2019-01-30T01:42:20.850Z,12.87
2019-01-30T01:46:24.279Z,12.80
2019-01-30T01:50:27.714Z,11.77
2019-01-30T01:54:31.137Z,13.27
2019-01-30T01:58:34.567Z,11.30
2019-01-30T02:02:38.003Z,12.03
2019-01-30T02:06:41.456Z,11.43
2019-01-30T02:10:44.912Z,11.90
2019-01-30T02:14:48.388Z,12.03
2019-01-30T02:18:51.820Z,11.63
2019-01-30T02:22:55.321Z,11.80
2019-01-30T02:26:58.752Z,11.13
2019-01-30T02:31:02.345Z,11.87
2019-01-30T02:35:06.508Z,12.20
2019-01-30T02:39:09.948Z,12.40
2019-01-30T02:43:13.375Z,11.63
2019-01-30T02:47:16.816Z,12.93
2019-01-30T02:51:20.229Z,12.67
2019-01-30T02:55:23.728Z,12.17
2019-01-30T02:59:27.162Z,12.00
2019-01-30T03:03:30.596Z,13.30
2019-01-30T03:07:34.023Z,12.40
2019-01-30T03:11:37.450Z,13.83
2019-01-30T03:15:40.884Z,12.37
2019-01-30T03:19:44.311Z,12.97
2019-01-30T03:23:47.751Z,12.53
2019-01-30T03:27:51.250Z,12.70
2019-01-30T03:31:54.693Z,12.20
2019-01-30T03:35:58.179Z,13.57
2019-01-30T03:40:01.615Z,12.57
2019-01-30T03:44:05.043Z,12.87
2019-01-30T03:48:08.459Z,12.10
2019-01-30T03:52:11.898Z,12.40
2019-01-30T03:56:15.415Z,12.13
2019-01-30T04:00:21.096Z,11.60
2019-01-30T04:04:24.523Z,13.27
2019-01-30T04:08:27.949Z,12.40
2019-01-30T04:12:31.388Z,12.30
2019-01-30T04:16:34.828Z,11.67
2019-01-30T04:20:38.266Z,12.47
2019-01-30T04:24:41.739Z,12.60
2019-01-30T04:28:45.155Z,12.17
2019-01-30T04:32:48.659Z,12.03
2019-01-30T04:36:52.103Z,11.70
2019-01-30T04:40:55.613Z,11.93
2019-01-30T04:44:59.038Z,12.20
2019-01-30T04:49:02.464Z,11.67
2019-01-30T04:53:05.892Z,12.40
2019-01-30T04:57:09.333Z,12.70
2019-01-30T05:01:12.844Z,12.00
2019-01-30T05:05:16.269Z,12.60
2019-01-30T05:09:19.709Z,12.17
2019-01-30T05:13:23.134Z,12.60
2019-01-30T05:17:26.565Z,12.13
2019-01-30T05:21:29.987Z,12.80
2019-01-30T05:25:33.398Z,12.60
2019-01-30T05:29:36.855Z,13.17
2019-01-30T05:33:40.297Z,12.80
2019-01-30T05:37:43.736Z,12.40
2019-01-30T05:41:47.196Z,13.20
2019-01-30T05:45:50.607Z,12.57
2019-01-30T05:49:54.042Z,12.30
2019-01-30T05:53:57.540Z,12.67
2019-01-30T05:58:00.984Z,12.80
2019-01-30T06:02:11.892Z,13.00
2019-01-30T06:06:09.628Z,12.67
2019-01-30T06:10:13.215Z,12.80
2019-01-30T06:14:16.652Z,13.17
2019-01-30T06:18:20.087Z,13.00
2019-01-30T06:22:23.532Z,12.47
2019-01-30T06:26:26.985Z,13.97
2019-01-30T06:30:30.411Z,14.00
2019-01-30T06:34:33.939Z,16.37
2019-01-30T06:38:37.381Z,15.23
2019-01-30T06:42:40.811Z,14.97
2019-01-30T06:46:44.253Z,13.47
2019-01-30T06:50:47.710Z,14.07
2019-01-30T06:54:51.144Z,13.63
2019-01-30T06:58:54.657Z,13.03
2019-01-30T07:02:58.151Z,12.97
2019-01-30T07:07:01.575Z,12.50
2019-01-30T07:11:10.716Z,12.37
2019-01-30T07:15:10.311Z,12.27
2019-01-30T07:19:13.745Z,13.13
2019-01-30T07:23:17.159Z,12.73
2019-01-30T07:27:20.609Z,13.53
2019-01-30T07:31:24.107Z,12.73
2019-01-30T07:35:27.623Z,13.57
2019-01-30T07:39:31.148Z,13.30
2019-01-30T07:43:34.567Z,13.20
2019-01-30T07:47:37.995Z,12.57
2019-01-30T07:51:41.466Z,12.13
2019-01-30T07:55:44.903Z,12.80
2019-01-30T07:59:48.320Z,12.03
2019-01-30T08:03:51.764Z,12.93
2019-01-30T08:07:55.271Z,12.47
2019-01-30T08:11:58.715Z,13.33
2019-01-30T08:16:02.153Z,12.93
2019-01-30T08:20:08.650Z,14.17
2019-01-30T08:24:12.527Z,13.00
2019-01-30T08:28:16.544Z,13.70
2019-01-30T08:32:22.276Z,13.30
2019-01-30T08:36:25.440Z,14.60
2019-01-30T08:40:29.004Z,15.30
2019-01-30T08:44:32.442Z,14.70
2019-01-30T08:48:35.872Z,13.90
2019-01-30T08:52:39.307Z,13.47
2019-01-30T08:56:52.315Z,12.60
2019-01-30T09:00:47.896Z,14.20
2019-01-30T09:04:51.332Z,12.83
2019-01-30T09:08:54.764Z,12.40
2019-01-30T09:12:58.469Z,14.20
2019-01-30T09:17:01.909Z,13.17
2019-01-30T09:21:05.424Z,12.43
2019-01-30T09:25:11.979Z,13.57
2019-01-30T09:29:15.452Z,14.30
2019-01-30T09:33:25.595Z,13.67
2019-01-30T09:37:24.111Z,13.47
2019-01-30T09:41:27.650Z,13.10
2019-01-30T09:45:31.151Z,11.97
2019-01-30T09:49:34.613Z,12.50
2019-01-30T09:53:38.083Z,13.67
2019-01-30T09:57:41.515Z,13.77
2019-01-30T10:01:44.949Z,13.27
2019-01-30T10:05:49.352Z,15.07
2019-01-30T10:09:52.787Z,12.27
2019-01-30T10:13:56.219Z,12.07
2019-01-30T10:17:59.630Z,12.70
2019-01-30T10:22:03.172Z,12.80
2019-01-30T10:26:06.603Z,12.97
2019-01-30T10:30:13.258Z,13.23
2019-01-30T10:34:16.685Z,12.63
2019-01-30T10:38:20.115Z,13.13
2019-01-30T10:42:23.551Z,12.07
2019-01-30T10:46:26.986Z,12.33
2019-01-30T10:50:31.928Z,12.47
2019-01-30T10:54:35.367Z,12.23
2019-01-30T10:58:38.999Z,12.83
2019-01-30T11:02:42.435Z,11.90
2019-01-30T11:06:45.882Z,12.87
2019-01-30T11:10:50.978Z,11.80
2019-01-30T11:14:54.470Z,11.83
2019-01-30T11:18:57.894Z,12.07
2019-01-30T11:23:01.328Z,11.67
2019-01-30T11:27:04.768Z,11.27
2019-01-30T11:31:08.186Z,11.27
2019-01-30T11:35:13.715Z,10.70
2019-01-30T11:39:17.194Z,10.93
2019-01-30T11:43:20.635Z,11.33
2019-01-30T11:47:24.143Z,11.23
2019-01-30T11:51:27.597Z,11.00
2019-01-30T11:55:31.100Z,10.00
2019-01-30T11:59:34.537Z,10.83
2019-01-30T12:03:37.962Z,10.43
2019-01-30T12:07:41.532Z,9.30
2019-01-30T12:11:44.990Z,10.53
2019-01-30T12:15:48.462Z,9.80
2019-01-30T12:19:51.932Z,9.90
2019-01-30T12:23:55.366Z,8.70
2019-01-30T12:27:58.813Z,9.07
2019-01-30T12:32:02.256Z,8.83
2019-01-30T12:36:06.114Z,8.93
2019-01-30T12:40:13.086Z,8.97
2019-01-30T12:44:16.521Z,8.30
2019-01-30T12:48:19.937Z,6.90
2019-01-30T12:52:23.366Z,8.13
2019-01-30T12:56:26.828Z,6.47
2019-01-30T13:00:38.486Z,6.17
2019-01-30T13:04:41.906Z,5.67
2019-01-30T13:08:45.326Z,5.60
2019-01-30T13:12:48.816Z,5.50
2019-01-30T13:16:52.260Z,4.77
2019-01-30T13:20:55.708Z,4.57
2019-01-30T13:24:59.135Z,5.47
2019-01-30T13:29:02.742Z,4.40
2019-01-30T13:33:07.727Z,4.27
2019-01-30T13:37:11.151Z,3.93
2019-01-30T13:41:14.585Z,4.10
2019-01-30T13:45:18.552Z,4.40
2019-01-30T13:49:21.979Z,3.67
2019-01-30T13:53:25.466Z,3.90
2019-01-30T13:57:28.882Z,2.83
2019-01-30T14:01:32.310Z,2.40
2019-01-30T14:05:36.307Z,1.50
2019-01-30T14:09:39.735Z,1.60
2019-01-30T14:13:43.162Z,1.20
2019-01-30T14:17:46.613Z,1.00
2019-01-30T14:21:50.103Z,1.00
2019-01-30T14:25:53.537Z,0.90
2019-01-30T14:29:58.333Z,0.87
2019-01-30T14:34:02.240Z,0.90
2019-01-30T14:38:05.937Z,0.93
2019-01-30T14:42:09.399Z,1.00
2019-01-30T14:46:12.853Z,1.20
2019-01-30T14:50:21.618Z,1.10
2019-01-30T14:54:25.077Z,0.80
2019-01-30T14:58:28.575Z,0.90
2019-01-30T15:02:32.034Z,1.10
2019-01-30T15:06:35.500Z,0.90
2019-01-30T15:10:39.073Z,0.93
2019-01-30T15:14:42.532Z,1.10
2019-01-30T15:18:46.055Z,1.07
2019-01-30T15:22:49.576Z,1.13
2019-01-30T15:26:52.983Z,1.43
2019-01-30T15:30:56.405Z,1.40
2019-01-30T15:34:59.864Z,1.30
2019-01-30T15:39:04.831Z,1.20
2019-01-30T15:43:08.368Z,1.30
2019-01-30T15:47:11.772Z,1.43
2019-01-30T15:51:15.199Z,1.20
2019-01-30T15:55:18.699Z,1.20
2019-01-30T15:59:22.203Z,1.20
2019-01-30T16:03:26.210Z,1.60
2019-01-30T16:07:29.684Z,1.67
2019-01-30T16:11:33.107Z,1.30
2019-01-30T16:15:45.851Z,1.57
2019-01-30T16:19:49.492Z,2.00
2019-01-30T16:23:53.315Z,1.50
2019-01-30T16:27:56.707Z,1.80
2019-01-30T16:32:00.136Z,1.40
2019-01-30T16:36:03.640Z,1.50
2019-01-30T16:40:10.148Z,1.80
2019-01-30T16:44:13.803Z,1.73
2019-01-30T16:48:17.233Z,1.40
2019-01-30T16:52:20.667Z,2.17
2019-01-30T16:56:24.110Z,1.87
2019-01-30T17:00:32.719Z,1.70
2019-01-30T17:04:36.132Z,1.80
2019-01-30T17:08:39.569Z,1.80
2019-01-30T17:12:43.431Z,1.80
2019-01-30T17:16:46.850Z,2.00
2019-01-30T17:20:50.281Z,1.73
2019-01-30T17:24:53.699Z,1.87
2019-01-30T17:28:57.115Z,2.20
2019-01-30T17:33:00.712Z,2.20
2019-01-30T17:37:04.199Z,2.17
2019-01-30T17:41:07.893Z,1.93
2019-01-30T17:45:30.809Z,2.40
2019-01-30T17:49:34.252Z,2.40
2019-01-30T17:53:37.683Z,2.50
2019-01-30T17:57:41.118Z,2.40
2019-01-30T18:01:44.674Z,2.37
2019-01-30T18:05:48.215Z,2.10
2019-01-30T18:09:51.647Z,2.57
2019-01-30T18:13:55.098Z,2.70
2019-01-30T18:17:58.515Z,2.40
2019-01-30T18:22:01.928Z,4.80
2019-01-30T18:26:05.437Z,2.57
2019-01-30T18:30:12.223Z,2.70
2019-01-30T18:34:15.663Z,2.63
2019-01-30T18:38:19.156Z,3.00
2019-01-30T18:42:22.569Z,3.30
2019-01-30T18:46:25.989Z,4.70
2019-01-30T18:50:30.478Z,3.07
2019-01-30T18:54:33.900Z,2.97
2019-01-30T18:58:37.337Z,3.00
2019-01-30T19:02:40.768Z,3.20
2019-01-30T19:06:52.011Z,4.13
2019-01-30T19:10:49.429Z,2.73
2019-01-30T19:14:52.855Z,2.97
2019-01-30T19:18:56.306Z,2.90
2019-01-30T19:23:19.667Z,3.07
2019-01-30T19:27:23.168Z,2.73
2019-01-30T19:31:26.609Z,2.60
2019-01-30T19:35:30.033Z,3.90
2019-01-30T19:39:33.461Z,3.07
2019-01-30T19:43:39.284Z,2.90
2019-01-30T19:47:42.731Z,2.77
2019-01-30T19:51:46.158Z,3.10
2019-01-30T19:55:49.587Z,2.70
2019-01-30T19:59:53.007Z,2.60
2019-01-30T20:03:56.492Z,3.00
2019-01-30T20:08:00.001Z,2.63
2019-01-30T20:12:03.573Z,2.90
2019-01-30T20:16:07.101Z,2.67
2019-01-30T20:20:20.982Z,2.70
2019-01-30T20:24:23.358Z,2.50
2019-01-30T20:28:26.789Z,2.50
2019-01-30T20:32:30.231Z,2.80
2019-01-30T20:36:33.666Z,2.57
2019-01-30T20:40:37.092Z,2.93
2019-01-30T20:44:40.558Z,2.27
2019-01-30T20:48:47.183Z,36.63
2019-01-30T20:52:49.144Z,2.33
2019-01-30T20:56:53.467Z,2.40
2019-01-30T21:00:56.893Z,2.30
2019-01-30T21:05:00.316Z,2.50
2019-01-30T21:09:06.351Z,2.10
2019-01-30T21:13:09.844Z,2.17
2019-01-30T21:17:13.272Z,1.93
2019-01-30T21:21:16.674Z,2.33
2019-01-30T21:25:21.551Z,2.20
2019-01-30T21:29:24.992Z,2.47
2019-01-30T21:33:28.479Z,2.53
2019-01-30T21:37:31.885Z,2.63
2019-01-30T21:41:35.316Z,2.60
2019-01-30T21:45:38.751Z,2.90
2019-01-30T21:49:42.179Z,2.70
2019-01-30T21:53:45.621Z,3.13
2019-01-30T21:57:49.096Z,2.87
2019-01-30T22:01:52.533Z,4.13
2019-01-30T22:05:55.946Z,3.30
2019-01-30T22:09:59.380Z,3.30
2019-01-30T22:14:02.914Z,3.57
2019-01-30T22:18:06.471Z,2.77
2019-01-30T22:22:09.965Z,3.13
2019-01-30T22:26:13.400Z,3.47
2019-01-30T22:30:19.283Z,3.53
2019-01-30T22:34:22.716Z,4.00
2019-01-30T22:38:26.131Z,3.87
2019-01-30T22:42:29.560Z,3.23
2019-01-30T22:46:32.995Z,2.97
2019-01-30T22:50:36.420Z,4.20
2019-01-30T22:54:39.855Z,3.60
2019-01-30T22:58:43.291Z,3.13
2019-01-30T23:02:46.788Z,3.30
2019-01-30T23:06:59.020Z,3.73
2019-01-30T23:11:23.747Z,3.67
2019-01-30T23:15:33.071Z,3.60
2019-01-30T23:19:39.552Z,3.30
2019-01-30T23:24:01.234Z,3.17
2019-01-30T23:28:19.914Z,3.03
2019-01-30T23:32:44.169Z,3.30
2019-01-30T23:37:02.455Z,3.07
2019-01-30T23:41:08.953Z,3.33
2019-01-30T23:45:24.280Z,2.87
2019-01-30T23:50:02.647Z,3.20
2019-01-30T23:54:26.912Z,3.60
2019-01-30T23:58:48.415Z,3.37
